sensor_id;sensor_type;location;lat;lon;timestamp;P1;durP1;ratioP1;P2;durP2;ratioP2
14975;SDS011;7584;60.468;25.126;2023-09-30T00:02:00;16.63;;;4.10;;
14975;SDS011;7584;60.468;25.126;2023-09-30T00:04:25;14.53;;;4.50;;
14975;SDS011;7584;60.468;25.126;2023-09-30T00:06:52;9.77;;;4.30;;
14975;SDS011;7584;60.468;25.126;2023-09-30T00:09:17;14.87;;;4.30;;
14975;SDS011;7584;60.468;25.126;2023-09-30T00:11:43;23.70;;;4.80;;
14975;SDS011;7584;60.468;25.126;2023-09-30T00:14:08;10.23;;;4.10;;
14975;SDS011;7584;60.468;25.126;2023-09-30T00:16:33;19.67;;;4.23;;
14975;SDS011;7584;60.468;25.126;2023-09-30T00:18:59;18.40;;;4.27;;
14975;SDS011;7584;60.468;25.126;2023-09-30T00:21:25;12.27;;;4.33;;
14975;SDS011;7584;60.468;25.126;2023-09-30T00:23:51;14.30;;;4.33;;
14975;SDS011;7584;60.468;25.126;2023-09-30T00:26:16;13.33;;;4.37;;
14975;SDS011;7584;60.468;25.126;2023-09-30T00:28:41;13.33;;;4.27;;
14975;SDS011;7584;60.468;25.126;2023-09-30T00:31:07;18.40;;;4.93;;
14975;SDS011;7584;60.468;25.126;2023-09-30T00:33:35;12.73;;;4.77;;
14975;SDS011;7584;60.468;25.126;2023-09-30T00:36:05;18.90;;;4.90;;
14975;SDS011;7584;60.468;25.126;2023-09-30T00:38:30;12.97;;;5.17;;
14975;SDS011;7584;60.468;25.126;2023-09-30T00:40:55;14.17;;;4.80;;
14975;SDS011;7584;60.468;25.126;2023-09-30T00:43:21;12.30;;;5.17;;
14975;SDS011;7584;60.468;25.126;2023-09-30T00:45:48;15.17;;;5.43;;
14975;SDS011;7584;60.468;25.126;2023-09-30T00:48:14;16.40;;;4.97;;
14975;SDS011;7584;60.468;25.126;2023-09-30T00:50:39;17.33;;;5.00;;
14975;SDS011;7584;60.468;25.126;2023-09-30T00:53:05;14.67;;;5.27;;
14975;SDS011;7584;60.468;25.126;2023-09-30T00:55:30;16.60;;;5.10;;
14975;SDS011;7584;60.468;25.126;2023-09-30T00:57:56;18.00;;;5.30;;
14975;SDS011;7584;60.468;25.126;2023-09-30T01:00:22;22.83;;;5.60;;
14975;SDS011;7584;60.468;25.126;2023-09-30T01:02:50;19.37;;;5.93;;
14975;SDS011;7584;60.468;25.126;2023-09-30T01:05:15;18.30;;;5.70;;
14975;SDS011;7584;60.468;25.126;2023-09-30T01:07:40;17.33;;;5.60;;
14975;SDS011;7584;60.468;25.126;2023-09-30T01:10:06;22.73;;;5.77;;
14975;SDS011;7584;60.468;25.126;2023-09-30T01:12:31;19.57;;;6.37;;
14975;SDS011;7584;60.468;25.126;2023-09-30T01:14:57;23.90;;;6.27;;
14975;SDS011;7584;60.468;25.126;2023-09-30T01:17:24;22.73;;;6.17;;
14975;SDS011;7584;60.468;25.126;2023-09-30T01:19:49;26.87;;;6.50;;
14975;SDS011;7584;60.468;25.126;2023-09-30T01:22:15;24.93;;;6.60;;
14975;SDS011;7584;60.468;25.126;2023-09-30T01:24:41;27.40;;;6.50;;
14975;SDS011;7584;60.468;25.126;2023-09-30T01:27:07;27.63;;;7.27;;
14975;SDS011;7584;60.468;25.126;2023-09-30T01:29:33;34.17;;;7.37;;
14975;SDS011;7584;60.468;25.126;2023-09-30T01:31:58;30.33;;;7.27;;
14975;SDS011;7584;60.468;25.126;2023-09-30T01:34:23;29.40;;;7.83;;
14975;SDS011;7584;60.468;25.126;2023-09-30T01:36:49;26.87;;;7.90;;
14975;SDS011;7584;60.468;25.126;2023-09-30T01:39:14;32.50;;;8.47;;
14975;SDS011;7584;60.468;25.126;2023-09-30T01:41:40;32.30;;;8.33;;
14975;SDS011;7584;60.468;25.126;2023-09-30T01:44:05;32.00;;;8.47;;
14975;SDS011;7584;60.468;25.126;2023-09-30T01:46:30;25.97;;;8.40;;
14975;SDS011;7584;60.468;25.126;2023-09-30T01:48:56;28.70;;;9.27;;
14975;SDS011;7584;60.468;25.126;2023-09-30T01:51:21;21.03;;;9.03;;
14975;SDS011;7584;60.468;25.126;2023-09-30T01:53:49;30.53;;;9.93;;
14975;SDS011;7584;60.468;25.126;2023-09-30T01:56:14;28.20;;;9.50;;
14975;SDS011;7584;60.468;25.126;2023-09-30T01:58:40;21.57;;;10.70;;
14975;SDS011;7584;60.468;25.126;2023-09-30T02:01:05;28.00;;;10.20;;
14975;SDS011;7584;60.468;25.126;2023-09-30T02:03:30;26.70;;;10.27;;
14975;SDS011;7584;60.468;25.126;2023-09-30T02:05:56;23.83;;;10.10;;
14975;SDS011;7584;60.468;25.126;2023-09-30T02:08:22;19.80;;;10.45;;
14975;SDS011;7584;60.468;25.126;2023-09-30T02:10:47;21.77;;;11.60;;
14975;SDS011;7584;60.468;25.126;2023-09-30T02:13:12;23.85;;;10.73;;
14975;SDS011;7584;60.468;25.126;2023-09-30T02:15:41;28.33;;;10.60;;
14975;SDS011;7584;60.468;25.126;2023-09-30T02:18:06;33.22;;;11.65;;
14975;SDS011;7584;60.468;25.126;2023-09-30T02:20:32;33.10;;;12.93;;
14975;SDS011;7584;60.468;25.126;2023-09-30T02:22:57;24.67;;;12.40;;
14975;SDS011;7584;60.468;25.126;2023-09-30T02:25:24;35.88;;;13.18;;
14975;SDS011;7584;60.468;25.126;2023-09-30T02:27:49;31.67;;;12.27;;
14975;SDS011;7584;60.468;25.126;2023-09-30T02:30:15;27.50;;;13.82;;
14975;SDS011;7584;60.468;25.126;2023-09-30T02:32:41;26.97;;;14.57;;
14975;SDS011;7584;60.468;25.126;2023-09-30T02:35:07;35.00;;;17.58;;
14975;SDS011;7584;60.468;25.126;2023-09-30T02:37:33;29.17;;;16.60;;
14975;SDS011;7584;60.468;25.126;2023-09-30T02:40:01;29.95;;;16.95;;
14975;SDS011;7584;60.468;25.126;2023-09-30T02:42:26;35.23;;;17.27;;
14975;SDS011;7584;60.468;25.126;2023-09-30T02:44:51;31.27;;;16.97;;
14975;SDS011;7584;60.468;25.126;2023-09-30T02:47:16;34.00;;;18.50;;
14975;SDS011;7584;60.468;25.126;2023-09-30T02:49:42;40.70;;;20.37;;
14975;SDS011;7584;60.468;25.126;2023-09-30T02:52:07;45.13;;;20.27;;
14975;SDS011;7584;60.468;25.126;2023-09-30T02:54:32;42.03;;;19.80;;
14975;SDS011;7584;60.468;25.126;2023-09-30T02:56:58;43.22;;;21.02;;
14975;SDS011;7584;60.468;25.126;2023-09-30T02:59:23;41.37;;;20.40;;
14975;SDS011;7584;60.468;25.126;2023-09-30T03:01:48;45.40;;;21.23;;
14975;SDS011;7584;60.468;25.126;2023-09-30T03:04:14;38.72;;;20.13;;
14975;SDS011;7584;60.468;25.126;2023-09-30T03:06:44;39.70;;;19.93;;
14975;SDS011;7584;60.468;25.126;2023-09-30T03:09:09;40.90;;;20.90;;
14975;SDS011;7584;60.468;25.126;2023-09-30T03:11:37;45.15;;;22.27;;
14975;SDS011;7584;60.468;25.126;2023-09-30T03:14:03;44.00;;;21.88;;
14975;SDS011;7584;60.468;25.126;2023-09-30T03:16:28;43.13;;;21.90;;
14975;SDS011;7584;60.468;25.126;2023-09-30T03:18:55;41.70;;;22.07;;
14975;SDS011;7584;60.468;25.126;2023-09-30T03:21:21;38.70;;;20.90;;
14975;SDS011;7584;60.468;25.126;2023-09-30T03:23:46;45.40;;;21.83;;
14975;SDS011;7584;60.468;25.126;2023-09-30T03:26:12;43.17;;;22.05;;
14975;SDS011;7584;60.468;25.126;2023-09-30T03:28:38;52.03;;;22.02;;
14975;SDS011;7584;60.468;25.126;2023-09-30T03:31:04;45.03;;;24.13;;
14975;SDS011;7584;60.468;25.126;2023-09-30T03:33:32;39.22;;;24.27;;
14975;SDS011;7584;60.468;25.126;2023-09-30T03:35:57;41.28;;;22.50;;
14975;SDS011;7584;60.468;25.126;2023-09-30T03:38:23;41.85;;;22.45;;
14975;SDS011;7584;60.468;25.126;2023-09-30T03:40:49;39.37;;;22.90;;
14975;SDS011;7584;60.468;25.126;2023-09-30T03:43:15;36.00;;;22.17;;
14975;SDS011;7584;60.468;25.126;2023-09-30T03:45:41;43.42;;;23.85;;
14975;SDS011;7584;60.468;25.126;2023-09-30T03:48:06;40.53;;;23.13;;
14975;SDS011;7584;60.468;25.126;2023-09-30T03:50:31;36.53;;;23.65;;
14975;SDS011;7584;60.468;25.126;2023-09-30T03:53:04;36.88;;;22.92;;
14975;SDS011;7584;60.468;25.126;2023-09-30T03:55:30;34.47;;;22.35;;
14975;SDS011;7584;60.468;25.126;2023-09-30T03:57:57;41.43;;;23.50;;
14975;SDS011;7584;60.468;25.126;2023-09-30T04:00:22;40.13;;;23.13;;
14975;SDS011;7584;60.468;25.126;2023-09-30T04:02:49;43.23;;;23.40;;
14975;SDS011;7584;60.468;25.126;2023-09-30T04:05:15;38.75;;;23.58;;
14975;SDS011;7584;60.468;25.126;2023-09-30T04:07:42;36.97;;;22.67;;
14975;SDS011;7584;60.468;25.126;2023-09-30T04:10:07;39.03;;;24.05;;
14975;SDS011;7584;60.468;25.126;2023-09-30T04:12:33;38.50;;;23.38;;
14975;SDS011;7584;60.468;25.126;2023-09-30T04:14:59;43.33;;;22.20;;
14975;SDS011;7584;60.468;25.126;2023-09-30T04:17:24;33.37;;;21.47;;
14975;SDS011;7584;60.468;25.126;2023-09-30T04:19:51;36.60;;;21.13;;
14975;SDS011;7584;60.468;25.126;2023-09-30T04:22:17;35.25;;;21.58;;
14975;SDS011;7584;60.468;25.126;2023-09-30T04:24:42;30.63;;;21.80;;
14975;SDS011;7584;60.468;25.126;2023-09-30T04:27:07;35.72;;;20.30;;
14975;SDS011;7584;60.468;25.126;2023-09-30T04:29:33;36.05;;;20.63;;
14975;SDS011;7584;60.468;25.126;2023-09-30T04:31:59;38.22;;;20.40;;
14975;SDS011;7584;60.468;25.126;2023-09-30T04:34:25;37.40;;;20.33;;
14975;SDS011;7584;60.468;25.126;2023-09-30T04:36:50;36.17;;;20.73;;
14975;SDS011;7584;60.468;25.126;2023-09-30T04:39:15;38.80;;;20.98;;
14975;SDS011;7584;60.468;25.126;2023-09-30T04:41:41;30.70;;;20.23;;
14975;SDS011;7584;60.468;25.126;2023-09-30T04:44:07;32.20;;;20.37;;
14975;SDS011;7584;60.468;25.126;2023-09-30T04:46:34;34.30;;;20.02;;
14975;SDS011;7584;60.468;25.126;2023-09-30T04:48:59;38.60;;;19.53;;
14975;SDS011;7584;60.468;25.126;2023-09-30T04:51:24;32.47;;;20.02;;
14975;SDS011;7584;60.468;25.126;2023-09-30T04:53:51;32.47;;;20.67;;
14975;SDS011;7584;60.468;25.126;2023-09-30T04:56:16;29.33;;;20.07;;
14975;SDS011;7584;60.468;25.126;2023-09-30T04:58:41;36.10;;;19.77;;
14975;SDS011;7584;60.468;25.126;2023-09-30T05:01:07;31.40;;;20.47;;
14975;SDS011;7584;60.468;25.126;2023-09-30T05:03:33;36.90;;;19.63;;
14975;SDS011;7584;60.468;25.126;2023-09-30T05:06:00;36.72;;;19.98;;
14975;SDS011;7584;60.468;25.126;2023-09-30T05:08:25;37.63;;;19.60;;
14975;SDS011;7584;60.468;25.126;2023-09-30T05:10:51;36.13;;;18.90;;
14975;SDS011;7584;60.468;25.126;2023-09-30T05:13:20;31.75;;;18.25;;
14975;SDS011;7584;60.468;25.126;2023-09-30T05:15:45;27.77;;;18.03;;
14975;SDS011;7584;60.468;25.126;2023-09-30T05:18:11;30.87;;;18.57;;
14975;SDS011;7584;60.468;25.126;2023-09-30T05:20:36;27.35;;;18.30;;
14975;SDS011;7584;60.468;25.126;2023-09-30T05:23:03;31.67;;;17.83;;
14975;SDS011;7584;60.468;25.126;2023-09-30T05:25:29;31.98;;;17.13;;
14975;SDS011;7584;60.468;25.126;2023-09-30T05:27:54;33.30;;;18.00;;
14975;SDS011;7584;60.468;25.126;2023-09-30T05:30:19;31.30;;;18.23;;
14975;SDS011;7584;60.468;25.126;2023-09-30T05:32:45;31.63;;;17.35;;
14975;SDS011;7584;60.468;25.126;2023-09-30T05:35:11;29.40;;;17.52;;
14975;SDS011;7584;60.468;25.126;2023-09-30T05:37:39;27.03;;;16.43;;
14975;SDS011;7584;60.468;25.126;2023-09-30T05:40:04;32.40;;;17.60;;
14975;SDS011;7584;60.468;25.126;2023-09-30T05:42:34;30.27;;;16.60;;
14975;SDS011;7584;60.468;25.126;2023-09-30T05:45:00;31.63;;;17.05;;
14975;SDS011;7584;60.468;25.126;2023-09-30T05:47:26;32.97;;;17.37;;
14975;SDS011;7584;60.468;25.126;2023-09-30T05:49:51;30.25;;;17.08;;
14975;SDS011;7584;60.468;25.126;2023-09-30T05:52:16;29.63;;;17.25;;
14975;SDS011;7584;60.468;25.126;2023-09-30T05:54:42;39.05;;;18.05;;
14975;SDS011;7584;60.468;25.126;2023-09-30T05:57:07;30.02;;;17.95;;
14975;SDS011;7584;60.468;25.126;2023-09-30T05:59:33;37.87;;;18.10;;
14975;SDS011;7584;60.468;25.126;2023-09-30T06:01:59;28.50;;;17.57;;
14975;SDS011;7584;60.468;25.126;2023-09-30T06:04:24;28.27;;;16.70;;
14975;SDS011;7584;60.468;25.126;2023-09-30T06:06:50;31.48;;;20.17;;
14975;SDS011;7584;60.468;25.126;2023-09-30T06:09:15;33.43;;;18.20;;
14975;SDS011;7584;60.468;25.126;2023-09-30T06:11:41;33.83;;;16.85;;
14975;SDS011;7584;60.468;25.126;2023-09-30T06:14:07;27.13;;;15.93;;
14975;SDS011;7584;60.468;25.126;2023-09-30T06:16:32;25.43;;;15.47;;
14975;SDS011;7584;60.468;25.126;2023-09-30T06:18:58;22.75;;;15.05;;
14975;SDS011;7584;60.468;25.126;2023-09-30T06:21:26;23.70;;;13.45;;
14975;SDS011;7584;60.468;25.126;2023-09-30T06:23:54;18.63;;;13.02;;
14975;SDS011;7584;60.468;25.126;2023-09-30T06:26:19;16.97;;;12.20;;
14975;SDS011;7584;60.468;25.126;2023-09-30T06:28:46;17.00;;;11.07;;
14975;SDS011;7584;60.468;25.126;2023-09-30T06:31:13;12.77;;;8.68;;
14975;SDS011;7584;60.468;25.126;2023-09-30T06:33:38;9.90;;;8.43;;
14975;SDS011;7584;60.468;25.126;2023-09-30T06:36:08;13.10;;;8.25;;
14975;SDS011;7584;60.468;25.126;2023-09-30T06:38:34;13.48;;;8.07;;
14975;SDS011;7584;60.468;25.126;2023-09-30T06:40:59;7.20;;;6.20;;
14975;SDS011;7584;60.468;25.126;2023-09-30T06:43:25;9.95;;;6.85;;
14975;SDS011;7584;60.468;25.126;2023-09-30T06:45:50;10.90;;;6.95;;
14975;SDS011;7584;60.468;25.126;2023-09-30T06:48:15;9.07;;;6.83;;
14975;SDS011;7584;60.468;25.126;2023-09-30T06:50:44;10.27;;;6.38;;
14975;SDS011;7584;60.468;25.126;2023-09-30T06:53:10;8.77;;;7.03;;
14975;SDS011;7584;60.468;25.126;2023-09-30T06:55:36;9.73;;;6.97;;
14975;SDS011;7584;60.468;25.126;2023-09-30T06:58:02;10.53;;;7.17;;
14975;SDS011;7584;60.468;25.126;2023-09-30T07:00:27;15.10;;;7.50;;
14975;SDS011;7584;60.468;25.126;2023-09-30T07:02:52;9.95;;;6.93;;
14975;SDS011;7584;60.468;25.126;2023-09-30T07:05:18;9.33;;;6.27;;
14975;SDS011;7584;60.468;25.126;2023-09-30T07:07:43;9.48;;;6.25;;
14975;SDS011;7584;60.468;25.126;2023-09-30T07:10:09;8.87;;;5.77;;
14975;SDS011;7584;60.468;25.126;2023-09-30T07:12:34;11.95;;;6.00;;
14975;SDS011;7584;60.468;25.126;2023-09-30T07:15:03;8.30;;;5.40;;
14975;SDS011;7584;60.468;25.126;2023-09-30T07:17:29;8.57;;;6.00;;
14975;SDS011;7584;60.468;25.126;2023-09-30T07:19:55;10.85;;;5.60;;
14975;SDS011;7584;60.468;25.126;2023-09-30T07:22:20;9.32;;;5.97;;
14975;SDS011;7584;60.468;25.126;2023-09-30T07:24:46;7.72;;;5.30;;
14975;SDS011;7584;60.468;25.126;2023-09-30T07:27:11;7.90;;;5.38;;
14975;SDS011;7584;60.468;25.126;2023-09-30T07:29:36;33.53;;;25.00;;
14975;SDS011;7584;60.468;25.126;2023-09-30T07:32:02;17.15;;;13.38;;
14975;SDS011;7584;60.468;25.126;2023-09-30T07:34:27;8.70;;;4.25;;
14975;SDS011;7584;60.468;25.126;2023-09-30T07:36:52;5.70;;;4.65;;
14975;SDS011;7584;60.468;25.126;2023-09-30T07:39:18;7.15;;;3.65;;
14975;SDS011;7584;60.468;25.126;2023-09-30T07:41:43;8.40;;;4.25;;
14975;SDS011;7584;60.468;25.126;2023-09-30T07:44:09;5.88;;;4.40;;
14975;SDS011;7584;60.468;25.126;2023-09-30T07:46:34;8.02;;;3.90;;
14975;SDS011;7584;60.468;25.126;2023-09-30T07:49:00;5.75;;;4.15;;
14975;SDS011;7584;60.468;25.126;2023-09-30T07:51:25;7.18;;;3.70;;
14975;SDS011;7584;60.468;25.126;2023-09-30T07:53:51;6.82;;;3.78;;
14975;SDS011;7584;60.468;25.126;2023-09-30T07:56:17;6.20;;;3.50;;
14975;SDS011;7584;60.468;25.126;2023-09-30T07:58:42;30.52;;;16.10;;
14975;SDS011;7584;60.468;25.126;2023-09-30T08:01:08;11.57;;;7.13;;
14975;SDS011;7584;60.468;25.126;2023-09-30T08:03:33;7.45;;;3.35;;
14975;SDS011;7584;60.468;25.126;2023-09-30T08:05:59;6.57;;;3.63;;
14975;SDS011;7584;60.468;25.126;2023-09-30T08:08:25;6.85;;;3.92;;
14975;SDS011;7584;60.468;25.126;2023-09-30T08:10:50;5.53;;;3.47;;
14975;SDS011;7584;60.468;25.126;2023-09-30T08:13:15;5.00;;;3.22;;
14975;SDS011;7584;60.468;25.126;2023-09-30T08:15:42;4.47;;;3.20;;
14975;SDS011;7584;60.468;25.126;2023-09-30T08:18:08;6.97;;;4.05;;
14975;SDS011;7584;60.468;25.126;2023-09-30T08:20:33;5.07;;;2.95;;
14975;SDS011;7584;60.468;25.126;2023-09-30T08:22:59;5.25;;;2.95;;
14975;SDS011;7584;60.468;25.126;2023-09-30T08:25:24;7.47;;;3.22;;
14975;SDS011;7584;60.468;25.126;2023-09-30T08:27:49;4.43;;;3.13;;
14975;SDS011;7584;60.468;25.126;2023-09-30T08:30:15;6.07;;;3.35;;
14975;SDS011;7584;60.468;25.126;2023-09-30T08:32:40;5.00;;;2.75;;
14975;SDS011;7584;60.468;25.126;2023-09-30T08:35:06;4.93;;;2.92;;
14975;SDS011;7584;60.468;25.126;2023-09-30T08:37:32;4.22;;;2.50;;
14975;SDS011;7584;60.468;25.126;2023-09-30T08:39:57;4.20;;;2.50;;
14975;SDS011;7584;60.468;25.126;2023-09-30T08:42:23;4.40;;;2.20;;
14975;SDS011;7584;60.468;25.126;2023-09-30T08:44:51;4.45;;;2.50;;
14975;SDS011;7584;60.468;25.126;2023-09-30T08:47:18;3.97;;;2.40;;
14975;SDS011;7584;60.468;25.126;2023-09-30T08:49:45;3.97;;;2.60;;
14975;SDS011;7584;60.468;25.126;2023-09-30T08:52:12;3.65;;;2.40;;
14975;SDS011;7584;60.468;25.126;2023-09-30T08:54:38;5.15;;;2.72;;
14975;SDS011;7584;60.468;25.126;2023-09-30T08:57:03;5.22;;;2.70;;
14975;SDS011;7584;60.468;25.126;2023-09-30T08:59:29;5.30;;;2.13;;
14975;SDS011;7584;60.468;25.126;2023-09-30T09:01:56;3.67;;;1.92;;
14975;SDS011;7584;60.468;25.126;2023-09-30T09:04:22;4.40;;;2.20;;
14975;SDS011;7584;60.468;25.126;2023-09-30T09:06:47;3.90;;;2.20;;
14975;SDS011;7584;60.468;25.126;2023-09-30T09:09:13;3.22;;;2.10;;
14975;SDS011;7584;60.468;25.126;2023-09-30T09:11:39;3.63;;;2.33;;
14975;SDS011;7584;60.468;25.126;2023-09-30T09:14:05;5.05;;;1.75;;
14975;SDS011;7584;60.468;25.126;2023-09-30T09:16:30;4.45;;;1.92;;
14975;SDS011;7584;60.468;25.126;2023-09-30T09:18:55;4.22;;;1.88;;
14975;SDS011;7584;60.468;25.126;2023-09-30T09:21:21;5.80;;;4.47;;
14975;SDS011;7584;60.468;25.126;2023-09-30T09:23:51;5.18;;;3.00;;
14975;SDS011;7584;60.468;25.126;2023-09-30T09:26:29;2.53;;;2.03;;
14975;SDS011;7584;60.468;25.126;2023-09-30T09:29:01;4.00;;;2.00;;
14975;SDS011;7584;60.468;25.126;2023-09-30T09:31:27;4.70;;;1.80;;
14975;SDS011;7584;60.468;25.126;2023-09-30T09:33:53;3.25;;;1.75;;
14975;SDS011;7584;60.468;25.126;2023-09-30T09:36:19;4.15;;;1.80;;
14975;SDS011;7584;60.468;25.126;2023-09-30T09:38:48;3.05;;;1.90;;
14975;SDS011;7584;60.468;25.126;2023-09-30T09:41:14;3.50;;;1.83;;
14975;SDS011;7584;60.468;25.126;2023-09-30T09:43:41;3.30;;;1.80;;
14975;SDS011;7584;60.468;25.126;2023-09-30T09:46:09;2.83;;;1.85;;
14975;SDS011;7584;60.468;25.126;2023-09-30T09:48:35;3.53;;;1.85;;
14975;SDS011;7584;60.468;25.126;2023-09-30T09:51:01;3.97;;;1.95;;
14975;SDS011;7584;60.468;25.126;2023-09-30T09:53:28;3.83;;;1.90;;
14975;SDS011;7584;60.468;25.126;2023-09-30T09:55:55;3.45;;;1.88;;
14975;SDS011;7584;60.468;25.126;2023-09-30T09:58:21;3.13;;;1.85;;
14975;SDS011;7584;60.468;25.126;2023-09-30T10:00:46;3.53;;;1.90;;
14975;SDS011;7584;60.468;25.126;2023-09-30T10:03:12;4.25;;;2.10;;
14975;SDS011;7584;60.468;25.126;2023-09-30T10:05:38;4.10;;;2.03;;
14975;SDS011;7584;60.468;25.126;2023-09-30T10:08:05;3.50;;;1.90;;
14975;SDS011;7584;60.468;25.126;2023-09-30T10:10:35;4.25;;;2.00;;
14975;SDS011;7584;60.468;25.126;2023-09-30T10:13:00;4.07;;;1.98;;
14975;SDS011;7584;60.468;25.126;2023-09-30T10:20:28;3.83;;;1.98;;
14975;SDS011;7584;60.468;25.126;2023-09-30T10:28:39;4.15;;;1.90;;
14975;SDS011;7584;60.468;25.126;2023-09-30T10:31:39;3.10;;;1.70;;
14975;SDS011;7584;60.468;25.126;2023-09-30T10:36:29;6.95;;;2.10;;
14975;SDS011;7584;60.468;25.126;2023-09-30T10:38:54;5.93;;;2.30;;
14975;SDS011;7584;60.468;25.126;2023-09-30T10:46:47;5.00;;;2.22;;
14975;SDS011;7584;60.468;25.126;2023-09-30T10:49:16;4.07;;;2.33;;
14975;SDS011;7584;60.468;25.126;2023-09-30T10:51:44;5.25;;;2.20;;
14975;SDS011;7584;60.468;25.126;2023-09-30T10:54:12;3.35;;;1.60;;
14975;SDS011;7584;60.468;25.126;2023-09-30T10:56:37;2.22;;;1.40;;
14975;SDS011;7584;60.468;25.126;2023-09-30T10:59:03;3.80;;;1.75;;
14975;SDS011;7584;60.468;25.126;2023-09-30T11:01:37;5.78;;;2.15;;
14975;SDS011;7584;60.468;25.126;2023-09-30T11:04:03;4.20;;;2.17;;
14975;SDS011;7584;60.468;25.126;2023-09-30T11:06:30;4.07;;;1.80;;
14975;SDS011;7584;60.468;25.126;2023-09-30T11:08:56;4.30;;;2.08;;
14975;SDS011;7584;60.468;25.126;2023-09-30T11:11:36;3.50;;;2.00;;
14975;SDS011;7584;60.468;25.126;2023-09-30T11:14:02;3.35;;;2.00;;
14975;SDS011;7584;60.468;25.126;2023-09-30T11:16:29;3.72;;;1.65;;
14975;SDS011;7584;60.468;25.126;2023-09-30T11:18:54;3.20;;;1.70;;
14975;SDS011;7584;60.468;25.126;2023-09-30T11:21:22;2.50;;;1.60;;
14975;SDS011;7584;60.468;25.126;2023-09-30T11:23:47;4.35;;;1.95;;
14975;SDS011;7584;60.468;25.126;2023-09-30T11:26:12;2.85;;;1.58;;
14975;SDS011;7584;60.468;25.126;2023-09-30T11:28:42;3.70;;;1.83;;
14975;SDS011;7584;60.468;25.126;2023-09-30T11:31:11;3.83;;;2.00;;
14975;SDS011;7584;60.468;25.126;2023-09-30T11:33:51;3.35;;;1.70;;
14975;SDS011;7584;60.468;25.126;2023-09-30T11:36:17;3.00;;;1.58;;
14975;SDS011;7584;60.468;25.126;2023-09-30T11:38:44;3.78;;;1.63;;
14975;SDS011;7584;60.468;25.126;2023-09-30T11:41:09;2.97;;;1.40;;
14975;SDS011;7584;60.468;25.126;2023-09-30T11:43:36;5.00;;;1.55;;
14975;SDS011;7584;60.468;25.126;2023-09-30T11:46:10;4.57;;;1.17;;
14975;SDS011;7584;60.468;25.126;2023-09-30T11:48:36;3.15;;;1.30;;
14975;SDS011;7584;60.468;25.126;2023-09-30T11:51:02;8.43;;;1.35;;
14975;SDS011;7584;60.468;25.126;2023-09-30T11:53:31;1.92;;;1.00;;
14975;SDS011;7584;60.468;25.126;2023-09-30T11:55:57;2.58;;;1.08;;
14975;SDS011;7584;60.468;25.126;2023-09-30T12:00:52;4.38;;;1.30;;
14975;SDS011;7584;60.468;25.126;2023-09-30T12:03:17;4.90;;;1.58;;
14975;SDS011;7584;60.468;25.126;2023-09-30T12:05:43;2.50;;;1.10;;
14975;SDS011;7584;60.468;25.126;2023-09-30T12:08:10;4.72;;;1.13;;
14975;SDS011;7584;60.468;25.126;2023-09-30T12:10:36;2.60;;;1.33;;
14975;SDS011;7584;60.468;25.126;2023-09-30T12:13:01;3.55;;;1.20;;
14975;SDS011;7584;60.468;25.126;2023-09-30T12:15:26;2.97;;;1.23;;
14975;SDS011;7584;60.468;25.126;2023-09-30T12:17:52;3.42;;;1.42;;
14975;SDS011;7584;60.468;25.126;2023-09-30T12:20:17;3.60;;;1.88;;
14975;SDS011;7584;60.468;25.126;2023-09-30T12:22:43;3.03;;;1.45;;
14975;SDS011;7584;60.468;25.126;2023-09-30T12:25:08;3.25;;;1.27;;
14975;SDS011;7584;60.468;25.126;2023-09-30T12:27:34;2.63;;;1.30;;
14975;SDS011;7584;60.468;25.126;2023-09-30T12:29:59;3.03;;;1.25;;
14975;SDS011;7584;60.468;25.126;2023-09-30T12:32:25;3.13;;;1.60;;
14975;SDS011;7584;60.468;25.126;2023-09-30T12:34:51;4.43;;;1.65;;
14975;SDS011;7584;60.468;25.126;2023-09-30T12:37:17;3.08;;;1.25;;
14975;SDS011;7584;60.468;25.126;2023-09-30T12:39:43;3.63;;;1.60;;
14975;SDS011;7584;60.468;25.126;2023-09-30T12:42:10;2.63;;;1.30;;
14975;SDS011;7584;60.468;25.126;2023-09-30T12:44:37;2.78;;;1.50;;
14975;SDS011;7584;60.468;25.126;2023-09-30T12:47:05;4.03;;;1.55;;
14975;SDS011;7584;60.468;25.126;2023-09-30T12:49:30;4.10;;;1.67;;
14975;SDS011;7584;60.468;25.126;2023-09-30T12:51:56;2.58;;;1.30;;
14975;SDS011;7584;60.468;25.126;2023-09-30T12:54:23;2.55;;;1.40;;
14975;SDS011;7584;60.468;25.126;2023-09-30T12:56:48;3.40;;;1.65;;
14975;SDS011;7584;60.468;25.126;2023-09-30T12:59:15;3.15;;;1.60;;
14975;SDS011;7584;60.468;25.126;2023-09-30T13:01:41;4.13;;;1.90;;
14975;SDS011;7584;60.468;25.126;2023-09-30T13:04:06;3.60;;;1.85;;
14975;SDS011;7584;60.468;25.126;2023-09-30T13:06:33;3.97;;;1.98;;
14975;SDS011;7584;60.468;25.126;2023-09-30T13:09:00;4.35;;;2.20;;
14975;SDS011;7584;60.468;25.126;2023-09-30T13:11:25;7.28;;;2.53;;
14975;SDS011;7584;60.468;25.126;2023-09-30T13:13:51;3.97;;;2.05;;
14975;SDS011;7584;60.468;25.126;2023-09-30T13:16:17;4.03;;;1.88;;
14975;SDS011;7584;60.468;25.126;2023-09-30T13:18:42;3.28;;;2.03;;
14975;SDS011;7584;60.468;25.126;2023-09-30T13:21:07;7.97;;;2.33;;
14975;SDS011;7584;60.468;25.126;2023-09-30T13:23:33;5.40;;;2.20;;
14975;SDS011;7584;60.468;25.126;2023-09-30T13:25:58;5.32;;;2.40;;
14975;SDS011;7584;60.468;25.126;2023-09-30T13:28:24;6.90;;;2.50;;
14975;SDS011;7584;60.468;25.126;2023-09-30T13:30:49;4.22;;;2.13;;
14975;SDS011;7584;60.468;25.126;2023-09-30T13:33:14;3.85;;;1.75;;
14975;SDS011;7584;60.468;25.126;2023-09-30T13:35:40;4.68;;;2.28;;
14975;SDS011;7584;60.468;25.126;2023-09-30T13:38:05;4.20;;;1.80;;
14975;SDS011;7584;60.468;25.126;2023-09-30T13:40:30;7.13;;;2.40;;
14975;SDS011;7584;60.468;25.126;2023-09-30T13:42:56;4.30;;;1.73;;
14975;SDS011;7584;60.468;25.126;2023-09-30T13:45:22;5.43;;;2.40;;
14975;SDS011;7584;60.468;25.126;2023-09-30T13:47:47;5.47;;;2.45;;
14975;SDS011;7584;60.468;25.126;2023-09-30T13:50:13;4.47;;;2.22;;
14975;SDS011;7584;60.468;25.126;2023-09-30T13:52:38;6.03;;;2.10;;
14975;SDS011;7584;60.468;25.126;2023-09-30T13:55:03;4.07;;;2.40;;
14975;SDS011;7584;60.468;25.126;2023-09-30T13:57:29;3.60;;;2.30;;
14975;SDS011;7584;60.468;25.126;2023-09-30T13:59:56;6.30;;;2.47;;
14975;SDS011;7584;60.468;25.126;2023-09-30T14:02:21;6.80;;;2.70;;
14975;SDS011;7584;60.468;25.126;2023-09-30T14:04:47;4.35;;;2.53;;
14975;SDS011;7584;60.468;25.126;2023-09-30T14:07:13;7.25;;;2.80;;
14975;SDS011;7584;60.468;25.126;2023-09-30T14:09:38;5.68;;;2.40;;
14975;SDS011;7584;60.468;25.126;2023-09-30T14:12:04;6.88;;;2.92;;
14975;SDS011;7584;60.468;25.126;2023-09-30T14:14:30;6.43;;;2.90;;
14975;SDS011;7584;60.468;25.126;2023-09-30T14:16:56;5.68;;;2.60;;
14975;SDS011;7584;60.468;25.126;2023-09-30T14:19:21;7.97;;;3.20;;
14975;SDS011;7584;60.468;25.126;2023-09-30T14:21:46;6.43;;;2.72;;
14975;SDS011;7584;60.468;25.126;2023-09-30T14:24:12;5.43;;;2.92;;
14975;SDS011;7584;60.468;25.126;2023-09-30T14:26:37;5.43;;;2.58;;
14975;SDS011;7584;60.468;25.126;2023-09-30T14:29:02;6.05;;;2.38;;
14975;SDS011;7584;60.468;25.126;2023-09-30T14:31:28;6.47;;;2.65;;
14975;SDS011;7584;60.468;25.126;2023-09-30T14:33:53;6.38;;;3.10;;
14975;SDS011;7584;60.468;25.126;2023-09-30T14:36:19;6.00;;;2.53;;
14975;SDS011;7584;60.468;25.126;2023-09-30T14:38:45;5.60;;;2.58;;
14975;SDS011;7584;60.468;25.126;2023-09-30T14:41:10;7.97;;;2.53;;
14975;SDS011;7584;60.468;25.126;2023-09-30T14:43:37;9.45;;;3.15;;
14975;SDS011;7584;60.468;25.126;2023-09-30T14:46:02;9.38;;;2.70;;
14975;SDS011;7584;60.468;25.126;2023-09-30T14:48:31;6.32;;;2.47;;
14975;SDS011;7584;60.468;25.126;2023-09-30T14:50:56;7.07;;;3.00;;
14975;SDS011;7584;60.468;25.126;2023-09-30T14:53:23;9.23;;;3.13;;